メインページ
METAR-TAF:

METAR-TAF

空港 :

バーレーン, バーレーン

バーレーン国際空港

緯度: 26-16N, 経度: 050-39E, 海抜: 2m

現時点の気象観測

当レポートは32分前の11:30(UTC)に作成
の風 8kt
気温 33°C
湿度 24%
気圧 1008 hPa
視程10km以上
1,500メートル以下は雲なし、積乱雲なし

METAR: OBBI 231130Z 36008KT CAVOK 33/10 Q1008 NOSIG

時間: 15:02 (12:02 UTC)

予報

当レポートは7時間2分前の05:00(UTC)に作成
予報は23日の 06時(UTC)から 24日の 12時(UTC)まで有効
の風 10kt
視程10km以上
1,500メートル以下は雲なし、積乱雲なし
23日の 15時(UTC)から 23日の 18時(UTC)まで徐々に
変向風 5kt
確率 30% :
24日の 00時(UTC)から 24日の 05時(UTC)まで一時的に
視程: 4500m
煙霧

TAF: OBBI 230500Z 2306/2412 35010KT CAVOK BECMG 2315/2318 VRB05KT PROB30 TEMPO 2400/2405 4500 HZ NSC

4,000以上の空港の気象観測と天気予報(METAR報とTAF報)

利用可能な観測所は地図上に黄色い丸と赤い丸で示す。

丸の上にカーソルを重ねると観測所名を参照できる。

次にクリックすると気象観測と天気予報を参照できる。

マップの切り替え:黒色「×」印の緑ボタンをクリックして拡大、「-」印の緑ボタンをクリックして縮小、緑色の三角印をクリックして隣りの地図に切り替え


METAR-TAF: